Sunday, December 16, 2018, 3:08 PM GMT
Back to Local

CYHU, Saint Hubert Airport

Location: , , Canada Lat: 45.517
Local Time: 3:08 PM GMT (15:08 GMT) Lon: -73.417
Time Zone: GMT Elev: 88 ft

Show me the last for .
Show Decoded

2018-12-16 14:00 METAR CYHU 161400Z AUTO 01006KT 9SM BKN230 M02/M03 A3020 RMK SLP229 =
2018-12-16 13:00 METAR CYHU 161300Z AUTO 01007KT 9SM CLR M03/M04 A3019 RMK SLP227 =
2018-12-16 12:00 METAR CYHU 161200Z AUTO 01005KT 9SM CLR M03/M04 A3020 RMK SLP230 =
2018-12-16 11:00 METAR CYHU 161100Z AUTO 02005KT 9SM CLR M04/M05 A3021 RMK SLP232 =
2018-12-16 10:00 METAR CYHU 161000Z AUTO 03004KT 9SM CLR M03/M04 A3022 RMK SLP236 =
2018-12-16 09:00 METAR CYHU 160900Z AUTO 05004KT 9SM CLR M02/M03 A3023 RMK SLP240 =
2018-12-16 08:00 METAR CYHU 160800Z AUTO 02006KT 9SM CLR M03/M04 A3025 RMK SLP246 =
2018-12-16 07:00 METAR CYHU 160700Z AUTO 06004KT 9SM CLR M02/M03 A3027 RMK SLP252 =
2018-12-16 06:00 METAR CYHU 160600Z AUTO 02007KT 9SM CLR M02/M03 A3026 RMK SLP251 =
2018-12-16 05:37 METAR CYHU 160537Z AUTO 01005KT 6SM BR CLR M02/M03 A3027 RMK SLP254 =
2018-12-16 05:20 METAR CYHU 160520Z AUTO 03002KT 5SM BR CLR M03/M04 A3028 RMK SLP256 =
2018-12-16 05:11 METAR CYHU 160511Z AUTO 01003KT 6SM BR CLR M01/M02 A3028 RMK SLP256 =
2018-12-16 05:02 METAR CYHU 160502Z AUTO 02003KT 5SM BR CLR M02/M02 A3028 RMK SLP255 =
2018-12-16 05:00 METAR CYHU 160500Z AUTO 03003KT 6SM BR CLR M02/M03 A3028 RMK SLP256 =
2018-12-16 04:00 METAR CYHU 160400Z AUTO 03004KT 7SM BKN031 M01/M02 A3029 RMK SLP260 =
2018-12-16 03:00 METAR CYHU 160300Z AUTO 02003KT 9SM BKN033 M00/M02 A3031 RMK SLP265 =
2018-12-16 02:00 METAR CYHU 160200Z AUTO 04004KT 9SM SCT035 00/M01 A3030 RMK SLP262 =
2018-12-16 01:00 METAR CYHU 160100Z AUTO 04002KT 9SM OVC037 01/M01 A3032 RMK SLP269 =
2018-12-16 00:00 METAR CYHU 160000Z AUTO VRB02KT 9SM OVC037 02/M01 A3031 RMK SLP265 =
2018-12-15 23:00 METAR CYHU 152300Z AUTO 00000KT 9SM OVC037 02/M01 A3029 RMK SLP260 =
2018-12-15 22:00 METAR CYHU 152200Z AUTO 07003KT 9SM OVC037 03/M01 A3027 RMK SLP254 =
2018-12-15 21:00 METAR CYHU 152100Z AUTO 01002KT 9SM OVC037 04/M01 A3027 RMK SLP252 =
2018-12-15 20:00 METAR CYHU 152000Z AUTO 33002KT 9SM OVC039 05/M01 A3025 RMK SLP245 =
2018-12-15 19:00 METAR CYHU 151900Z AUTO 29005KT 270V330 9SM CLR 05/M01 A3023 RMK SLP240 =
2018-12-15 18:00 METAR CYHU 151800Z AUTO 28006KT 250V310 9SM FEW044 05/M00 A3021 RMK SLP233 =
2018-12-15 17:00 METAR CYHU 151700Z AUTO 28007KT 9SM OVC044 04/00 A3022 RMK SLP237 =
2018-12-15 16:00 METAR CYHU 151600Z AUTO 26007KT 9SM FEW019 OVC034 04/01 A3022 RMK SLP237 =

Support USWX by starting your Amazon purchase here.